sensor_id;sensor_type;location;lat;lon;timestamp;P1;P2;P0
31330;PMS5003;34067;39.548;-76.088;2023-10-08T00:01:39;127;127;
31330;PMS5003;34067;39.548;-76.088;2023-10-08T00:04:06;135;135;
31330;PMS5003;34067;39.548;-76.088;2023-10-08T00:06:34;150;150;
31330;PMS5003;34067;39.548;-76.088;2023-10-08T00:09:01;76;76;
31330;PMS5003;34067;39.548;-76.088;2023-10-08T00:11:30;133;133;
31330;PMS5003;34067;39.548;-76.088;2023-10-08T00:13:57;243;243;
31330;PMS5003;34067;39.548;-76.088;2023-10-08T00:16:25;89;89;
31330;PMS5003;34067;39.548;-76.088;2023-10-08T00:18:53;24;24;
31330;PMS5003;34067;39.548;-76.088;2023-10-08T00:21:21;80;80;
31330;PMS5003;34067;39.548;-76.088;2023-10-08T00:23:49;19;19;
31330;PMS5003;34067;39.548;-76.088;2023-10-08T00:26:17;114;114;
31330;PMS5003;34067;39.548;-76.088;2023-10-08T00:28:45;95;95;
31330;PMS5003;34067;39.548;-76.088;2023-10-08T00:31:13;22;22;
31330;PMS5003;34067;39.548;-76.088;2023-10-08T00:33:41;100;98;
31330;PMS5003;34067;39.548;-76.088;2023-10-08T00:36:09;7;7;
31330;PMS5003;34067;39.548;-76.088;2023-10-08T00:38:37;37;37;
31330;PMS5003;34067;39.548;-76.088;2023-10-08T00:41:05;37;37;
31330;PMS5003;34067;39.548;-76.088;2023-10-08T00:43:33;41;41;
31330;PMS5003;34067;39.548;-76.088;2023-10-08T00:46:03;33;33;
31330;PMS5003;34067;39.548;-76.088;2023-10-08T00:48:33;30;30;
31330;PMS5003;34067;39.548;-76.088;2023-10-08T00:51:01;20;20;
31330;PMS5003;34067;39.548;-76.088;2023-10-08T00:53:29;21;21;
31330;PMS5003;34067;39.548;-76.088;2023-10-08T00:55:57;21;21;
31330;PMS5003;34067;39.548;-76.088;2023-10-08T00:58:25;21;21;
31330;PMS5003;34067;39.548;-76.088;2023-10-08T01:00:53;27;26;
31330;PMS5003;34067;39.548;-76.088;2023-10-08T01:03:22;21;21;
31330;PMS5003;34067;39.548;-76.088;2023-10-08T01:05:49;37;37;
31330;PMS5003;34067;39.548;-76.088;2023-10-08T01:08:17;22;22;
31330;PMS5003;34067;39.548;-76.088;2023-10-08T01:10:45;21;21;
31330;PMS5003;34067;39.548;-76.088;2023-10-08T01:13:12;26;26;
31330;PMS5003;34067;39.548;-76.088;2023-10-08T01:15:41;22;22;
31330;PMS5003;34067;39.548;-76.088;2023-10-08T01:18:09;26;25;
31330;PMS5003;34067;39.548;-76.088;2023-10-08T01:20:36;24;24;
31330;PMS5003;34067;39.548;-76.088;2023-10-08T01:23:05;21;21;
31330;PMS5003;34067;39.548;-76.088;2023-10-08T01:25:34;18;18;
31330;PMS5003;34067;39.548;-76.088;2023-10-08T01:28:04;29;25;
31330;PMS5003;34067;39.548;-76.088;2023-10-08T01:30:32;32;31;
31330;PMS5003;34067;39.548;-76.088;2023-10-08T01:33:00;25;25;
31330;PMS5003;34067;39.548;-76.088;2023-10-08T01:35:28;28;28;
31330;PMS5003;34067;39.548;-76.088;2023-10-08T01:37:56;23;23;
31330;PMS5003;34067;39.548;-76.088;2023-10-08T01:40:24;31;31;
31330;PMS5003;34067;39.548;-76.088;2023-10-08T01:42:53;32;31;
31330;PMS5003;34067;39.548;-76.088;2023-10-08T01:45:21;24;24;
31330;PMS5003;34067;39.548;-76.088;2023-10-08T01:47:49;23;23;
31330;PMS5003;34067;39.548;-76.088;2023-10-08T01:50:17;27;26;
31330;PMS5003;34067;39.548;-76.088;2023-10-08T01:52:45;28;28;
31330;PMS5003;34067;39.548;-76.088;2023-10-08T01:55:14;34;34;
31330;PMS5003;34067;39.548;-76.088;2023-10-08T01:57:41;129;129;
31330;PMS5003;34067;39.548;-76.088;2023-10-08T02:00:09;24;24;
31330;PMS5003;34067;39.548;-76.088;2023-10-08T02:02:38;4;4;
31330;PMS5003;34067;39.548;-76.088;2023-10-08T02:05:06;3;3;
31330;PMS5003;34067;39.548;-76.088;2023-10-08T02:07:34;4;4;
31330;PMS5003;34067;39.548;-76.088;2023-10-08T02:10:02;4;4;
31330;PMS5003;34067;39.548;-76.088;2023-10-08T02:12:30;4;4;
31330;PMS5003;34067;39.548;-76.088;2023-10-08T02:14:58;4;4;
31330;PMS5003;34067;39.548;-76.088;2023-10-08T02:17:26;4;3;
31330;PMS5003;34067;39.548;-76.088;2023-10-08T02:19:55;3;3;
31330;PMS5003;34067;39.548;-76.088;2023-10-08T02:22:22;4;4;
31330;PMS5003;34067;39.548;-76.088;2023-10-08T02:24:50;4;4;
31330;PMS5003;34067;39.548;-76.088;2023-10-08T02:27:19;4;4;
31330;PMS5003;34067;39.548;-76.088;2023-10-08T02:29:47;3;3;
31330;PMS5003;34067;39.548;-76.088;2023-10-08T02:32:15;4;4;
31330;PMS5003;34067;39.548;-76.088;2023-10-08T02:34:43;3;3;
31330;PMS5003;34067;39.548;-76.088;2023-10-08T02:37:11;4;4;
31330;PMS5003;34067;39.548;-76.088;2023-10-08T02:39:39;3;3;
31330;PMS5003;34067;39.548;-76.088;2023-10-08T02:42:07;3;3;
31330;PMS5003;34067;39.548;-76.088;2023-10-08T02:44:35;4;4;
31330;PMS5003;34067;39.548;-76.088;2023-10-08T02:47:03;3;3;
31330;PMS5003;34067;39.548;-76.088;2023-10-08T02:49:31;5;5;
31330;PMS5003;34067;39.548;-76.088;2023-10-08T02:52:00;4;4;
31330;PMS5003;34067;39.548;-76.088;2023-10-08T02:54:27;3;3;
31330;PMS5003;34067;39.548;-76.088;2023-10-08T02:56:55;4;3;
31330;PMS5003;34067;39.548;-76.088;2023-10-08T02:59:23;5;5;
31330;PMS5003;34067;39.548;-76.088;2023-10-08T03:01:55;4;4;
31330;PMS5003;34067;39.548;-76.088;2023-10-08T03:04:23;3;3;
31330;PMS5003;34067;39.548;-76.088;2023-10-08T03:06:51;3;2;
31330;PMS5003;34067;39.548;-76.088;2023-10-08T03:09:20;3;3;
31330;PMS5003;34067;39.548;-76.088;2023-10-08T03:11:49;4;4;
31330;PMS5003;34067;39.548;-76.088;2023-10-08T03:14:17;4;4;
31330;PMS5003;34067;39.548;-76.088;2023-10-08T03:16:45;4;4;
31330;PMS5003;34067;39.548;-76.088;2023-10-08T03:19:13;3;3;
31330;PMS5003;34067;39.548;-76.088;2023-10-08T03:21:41;4;4;
31330;PMS5003;34067;39.548;-76.088;2023-10-08T03:24:09;4;4;
31330;PMS5003;34067;39.548;-76.088;2023-10-08T03:26:37;4;4;
31330;PMS5003;34067;39.548;-76.088;2023-10-08T03:29:05;4;4;
31330;PMS5003;34067;39.548;-76.088;2023-10-08T03:31:34;4;4;
31330;PMS5003;34067;39.548;-76.088;2023-10-08T03:34:02;4;4;
31330;PMS5003;34067;39.548;-76.088;2023-10-08T03:36:30;5;4;
31330;PMS5003;34067;39.548;-76.088;2023-10-08T03:38:58;4;4;
31330;PMS5003;34067;39.548;-76.088;2023-10-08T03:41:26;3;3;
31330;PMS5003;34067;39.548;-76.088;2023-10-08T03:43:54;5;5;
31330;PMS5003;34067;39.548;-76.088;2023-10-08T03:46:22;4;4;
31330;PMS5003;34067;39.548;-76.088;2023-10-08T03:48:50;8;5;
31330;PMS5003;34067;39.548;-76.088;2023-10-08T03:51:18;5;5;
31330;PMS5003;34067;39.548;-76.088;2023-10-08T03:53:47;7;7;
31330;PMS5003;34067;39.548;-76.088;2023-10-08T03:56:14;8;8;
31330;PMS5003;34067;39.548;-76.088;2023-10-08T03:58:42;11;10;
31330;PMS5003;34067;39.548;-76.088;2023-10-08T04:01:11;7;7;
31330;PMS5003;34067;39.548;-76.088;2023-10-08T04:03:39;6;6;
31330;PMS5003;34067;39.548;-76.088;2023-10-08T04:06:07;8;8;
31330;PMS5003;34067;39.548;-76.088;2023-10-08T04:08:35;14;14;
31330;PMS5003;34067;39.548;-76.088;2023-10-08T04:11:03;22;22;
31330;PMS5003;34067;39.548;-76.088;2023-10-08T04:13:31;32;31;
31330;PMS5003;34067;39.548;-76.088;2023-10-08T04:15:59;3;2;
31330;PMS5003;34067;39.548;-76.088;2023-10-08T04:18:27;3;3;
31330;PMS5003;34067;39.548;-76.088;2023-10-08T04:20:55;3;3;
31330;PMS5003;34067;39.548;-76.088;2023-10-08T04:23:24;3;3;
31330;PMS5003;34067;39.548;-76.088;2023-10-08T04:25:52;4;4;
31330;PMS5003;34067;39.548;-76.088;2023-10-08T04:28:20;4;4;
31330;PMS5003;34067;39.548;-76.088;2023-10-08T04:30:48;5;5;
31330;PMS5003;34067;39.548;-76.088;2023-10-08T04:33:16;4;4;
31330;PMS5003;34067;39.548;-76.088;2023-10-08T04:35:44;4;4;
31330;PMS5003;34067;39.548;-76.088;2023-10-08T04:38:13;3;3;
31330;PMS5003;34067;39.548;-76.088;2023-10-08T04:40:41;3;3;
31330;PMS5003;34067;39.548;-76.088;2023-10-08T04:43:09;7;4;
31330;PMS5003;34067;39.548;-76.088;2023-10-08T04:45:37;3;3;
31330;PMS5003;34067;39.548;-76.088;2023-10-08T04:48:05;3;3;
31330;PMS5003;34067;39.548;-76.088;2023-10-08T04:50:33;4;4;
31330;PMS5003;34067;39.548;-76.088;2023-10-08T04:53:01;4;4;
31330;PMS5003;34067;39.548;-76.088;2023-10-08T04:55:30;5;5;
31330;PMS5003;34067;39.548;-76.088;2023-10-08T04:57:58;4;4;
31330;PMS5003;34067;39.548;-76.088;2023-10-08T05:03:09;5;5;
31330;PMS5003;34067;39.548;-76.088;2023-10-08T05:05:37;4;3;
31330;PMS5003;34067;39.548;-76.088;2023-10-08T05:08:05;4;4;
31330;PMS5003;34067;39.548;-76.088;2023-10-08T05:10:33;4;4;
31330;PMS5003;34067;39.548;-76.088;2023-10-08T05:13:01;4;4;
31330;PMS5003;34067;39.548;-76.088;2023-10-08T05:15:30;5;5;
31330;PMS5003;34067;39.548;-76.088;2023-10-08T05:17:58;5;5;
31330;PMS5003;34067;39.548;-76.088;2023-10-08T05:20:26;3;3;
31330;PMS5003;34067;39.548;-76.088;2023-10-08T05:22:54;6;4;
31330;PMS5003;34067;39.548;-76.088;2023-10-08T05:25:22;6;5;
31330;PMS5003;34067;39.548;-76.088;2023-10-08T05:27:53;7;6;
31330;PMS5003;34067;39.548;-76.088;2023-10-08T05:30:21;11;11;
31330;PMS5003;34067;39.548;-76.088;2023-10-08T05:32:52;20;20;
31330;PMS5003;34067;39.548;-76.088;2023-10-08T05:35:20;27;27;
31330;PMS5003;34067;39.548;-76.088;2023-10-08T05:37:48;75;75;
31330;PMS5003;34067;39.548;-76.088;2023-10-08T05:40:16;51;50;
31330;PMS5003;34067;39.548;-76.088;2023-10-08T05:42:44;43;43;
31330;PMS5003;34067;39.548;-76.088;2023-10-08T05:45:12;34;34;
31330;PMS5003;34067;39.548;-76.088;2023-10-08T05:47:40;31;31;
31330;PMS5003;34067;39.548;-76.088;2023-10-08T05:50:08;20;20;
31330;PMS5003;34067;39.548;-76.088;2023-10-08T05:52:36;9;9;
31330;PMS5003;34067;39.548;-76.088;2023-10-08T05:55:05;21;21;
31330;PMS5003;34067;39.548;-76.088;2023-10-08T05:57:33;8;8;
31330;PMS5003;34067;39.548;-76.088;2023-10-08T06:00:02;47;47;
31330;PMS5003;34067;39.548;-76.088;2023-10-08T06:02:31;4;4;
31330;PMS5003;34067;39.548;-76.088;2023-10-08T06:05:01;6;5;
31330;PMS5003;34067;39.548;-76.088;2023-10-08T06:07:29;5;5;
31330;PMS5003;34067;39.548;-76.088;2023-10-08T06:09:57;5;5;
31330;PMS5003;34067;39.548;-76.088;2023-10-08T06:12:26;5;5;
31330;PMS5003;34067;39.548;-76.088;2023-10-08T06:14:54;5;5;
31330;PMS5003;34067;39.548;-76.088;2023-10-08T06:17:22;5;5;
31330;PMS5003;34067;39.548;-76.088;2023-10-08T06:19:50;6;4;
31330;PMS5003;34067;39.548;-76.088;2023-10-08T06:22:18;5;5;
31330;PMS5003;34067;39.548;-76.088;2023-10-08T06:24:46;4;4;
31330;PMS5003;34067;39.548;-76.088;2023-10-08T06:27:15;5;5;
31330;PMS5003;34067;39.548;-76.088;2023-10-08T06:29:43;5;4;
31330;PMS5003;34067;39.548;-76.088;2023-10-08T06:32:11;5;4;
31330;PMS5003;34067;39.548;-76.088;2023-10-08T06:34:39;3;3;
31330;PMS5003;34067;39.548;-76.088;2023-10-08T06:37:07;5;5;
31330;PMS5003;34067;39.548;-76.088;2023-10-08T06:39:35;5;5;
31330;PMS5003;34067;39.548;-76.088;2023-10-08T06:42:04;4;4;
31330;PMS5003;34067;39.548;-76.088;2023-10-08T06:44:32;4;4;
31330;PMS5003;34067;39.548;-76.088;2023-10-08T06:47:00;4;4;
31330;PMS5003;34067;39.548;-76.088;2023-10-08T06:49:28;4;4;
31330;PMS5003;34067;39.548;-76.088;2023-10-08T06:51:56;4;4;
31330;PMS5003;34067;39.548;-76.088;2023-10-08T06:54:24;3;3;
31330;PMS5003;34067;39.548;-76.088;2023-10-08T06:56:52;4;4;
31330;PMS5003;34067;39.548;-76.088;2023-10-08T06:59:21;4;4;
31330;PMS5003;34067;39.548;-76.088;2023-10-08T07:01:49;4;4;
31330;PMS5003;34067;39.548;-76.088;2023-10-08T07:04:17;4;4;
31330;PMS5003;34067;39.548;-76.088;2023-10-08T07:06:45;6;5;
31330;PMS5003;34067;39.548;-76.088;2023-10-08T07:09:13;4;4;
31330;PMS5003;34067;39.548;-76.088;2023-10-08T07:11:41;4;4;
31330;PMS5003;34067;39.548;-76.088;2023-10-08T07:14:09;5;4;
31330;PMS5003;34067;39.548;-76.088;2023-10-08T07:16:38;4;4;
31330;PMS5003;34067;39.548;-76.088;2023-10-08T07:19:06;2;2;
31330;PMS5003;34067;39.548;-76.088;2023-10-08T07:21:34;3;3;
31330;PMS5003;34067;39.548;-76.088;2023-10-08T07:24:02;2;2;
31330;PMS5003;34067;39.548;-76.088;2023-10-08T07:26:30;4;3;
31330;PMS5003;34067;39.548;-76.088;2023-10-08T07:28:58;3;3;
31330;PMS5003;34067;39.548;-76.088;2023-10-08T07:31:26;3;3;
31330;PMS5003;34067;39.548;-76.088;2023-10-08T07:33:55;3;3;
31330;PMS5003;34067;39.548;-76.088;2023-10-08T07:36:24;3;3;
31330;PMS5003;34067;39.548;-76.088;2023-10-08T07:38:52;3;3;
31330;PMS5003;34067;39.548;-76.088;2023-10-08T07:41:20;3;3;
31330;PMS5003;34067;39.548;-76.088;2023-10-08T07:43:49;5;3;
31330;PMS5003;34067;39.548;-76.088;2023-10-08T07:46:17;2;2;
31330;PMS5003;34067;39.548;-76.088;2023-10-08T07:48:45;3;3;
31330;PMS5003;34067;39.548;-76.088;2023-10-08T07:51:13;2;2;
31330;PMS5003;34067;39.548;-76.088;2023-10-08T07:53:42;2;2;
31330;PMS5003;34067;39.548;-76.088;2023-10-08T07:56:10;1;1;
31330;PMS5003;34067;39.548;-76.088;2023-10-08T07:58:38;2;2;
31330;PMS5003;34067;39.548;-76.088;2023-10-08T08:01:06;3;2;
31330;PMS5003;34067;39.548;-76.088;2023-10-08T08:03:35;2;2;
31330;PMS5003;34067;39.548;-76.088;2023-10-08T08:06:04;2;2;
31330;PMS5003;34067;39.548;-76.088;2023-10-08T08:08:32;2;2;
31330;PMS5003;34067;39.548;-76.088;2023-10-08T08:11:00;2;2;
31330;PMS5003;34067;39.548;-76.088;2023-10-08T08:13:29;1;1;
31330;PMS5003;34067;39.548;-76.088;2023-10-08T08:15:57;2;2;
31330;PMS5003;34067;39.548;-76.088;2023-10-08T08:18:25;1;1;
31330;PMS5003;34067;39.548;-76.088;2023-10-08T08:20:53;2;1;
31330;PMS5003;34067;39.548;-76.088;2023-10-08T08:23:21;1;1;
31330;PMS5003;34067;39.548;-76.088;2023-10-08T08:25:49;2;1;
31330;PMS5003;34067;39.548;-76.088;2023-10-08T08:28:17;2;2;
31330;PMS5003;34067;39.548;-76.088;2023-10-08T08:30:46;2;2;
31330;PMS5003;34067;39.548;-76.088;2023-10-08T08:33:15;2;2;
31330;PMS5003;34067;39.548;-76.088;2023-10-08T08:35:43;3;2;
31330;PMS5003;34067;39.548;-76.088;2023-10-08T08:38:11;2;2;
31330;PMS5003;34067;39.548;-76.088;2023-10-08T08:40:39;1;1;
31330;PMS5003;34067;39.548;-76.088;2023-10-08T08:43:07;2;2;
31330;PMS5003;34067;39.548;-76.088;2023-10-08T08:45:35;2;2;
31330;PMS5003;34067;39.548;-76.088;2023-10-08T08:48:04;3;3;
31330;PMS5003;34067;39.548;-76.088;2023-10-08T08:50:34;1;1;
31330;PMS5003;34067;39.548;-76.088;2023-10-08T08:53:03;2;2;
31330;PMS5003;34067;39.548;-76.088;2023-10-08T08:55:31;2;2;
31330;PMS5003;34067;39.548;-76.088;2023-10-08T08:57:59;2;2;
31330;PMS5003;34067;39.548;-76.088;2023-10-08T09:00:28;3;2;
31330;PMS5003;34067;39.548;-76.088;2023-10-08T09:02:58;1;1;
31330;PMS5003;34067;39.548;-76.088;2023-10-08T09:05:26;2;2;
31330;PMS5003;34067;39.548;-76.088;2023-10-08T09:07:55;2;2;
31330;PMS5003;34067;39.548;-76.088;2023-10-08T09:10:25;1;1;
31330;PMS5003;34067;39.548;-76.088;2023-10-08T09:12:54;2;2;
31330;PMS5003;34067;39.548;-76.088;2023-10-08T09:15:24;2;2;
31330;PMS5003;34067;39.548;-76.088;2023-10-08T09:17:52;2;1;
31330;PMS5003;34067;39.548;-76.088;2023-10-08T09:20:20;3;3;
31330;PMS5003;34067;39.548;-76.088;2023-10-08T09:22:59;3;1;
31330;PMS5003;34067;39.548;-76.088;2023-10-08T09:25:33;2;2;
31330;PMS5003;34067;39.548;-76.088;2023-10-08T09:28:01;2;1;
31330;PMS5003;34067;39.548;-76.088;2023-10-08T09:30:30;3;2;
31330;PMS5003;34067;39.548;-76.088;2023-10-08T09:32:58;2;2;
31330;PMS5003;34067;39.548;-76.088;2023-10-08T09:35:27;2;2;
31330;PMS5003;34067;39.548;-76.088;2023-10-08T09:37:55;2;2;
31330;PMS5003;34067;39.548;-76.088;2023-10-08T09:40:23;2;2;
31330;PMS5003;34067;39.548;-76.088;2023-10-08T09:42:52;2;2;
31330;PMS5003;34067;39.548;-76.088;2023-10-08T09:45:20;3;2;
31330;PMS5003;34067;39.548;-76.088;2023-10-08T09:47:49;2;2;
31330;PMS5003;34067;39.548;-76.088;2023-10-08T09:50:20;2;2;
31330;PMS5003;34067;39.548;-76.088;2023-10-08T09:52:56;3;3;
31330;PMS5003;34067;39.548;-76.088;2023-10-08T09:55:28;2;2;
31330;PMS5003;34067;39.548;-76.088;2023-10-08T09:57:56;2;2;
31330;PMS5003;34067;39.548;-76.088;2023-10-08T10:00:25;2;2;
31330;PMS5003;34067;39.548;-76.088;2023-10-08T10:02:55;1;1;
31330;PMS5003;34067;39.548;-76.088;2023-10-08T10:05:28;2;2;
31330;PMS5003;34067;39.548;-76.088;2023-10-08T10:07:57;1;1;
31330;PMS5003;34067;39.548;-76.088;2023-10-08T10:10:26;1;1;
31330;PMS5003;34067;39.548;-76.088;2023-10-08T10:12:57;1;1;
31330;PMS5003;34067;39.548;-76.088;2023-10-08T10:15:25;2;1;
31330;PMS5003;34067;39.548;-76.088;2023-10-08T10:17:54;2;1;
31330;PMS5003;34067;39.548;-76.088;2023-10-08T10:20:25;1;1;
31330;PMS5003;34067;39.548;-76.088;2023-10-08T10:22:53;2;2;
31330;PMS5003;34067;39.548;-76.088;2023-10-08T10:25:33;2;2;
31330;PMS5003;34067;39.548;-76.088;2023-10-08T10:28:33;3;3;
31330;PMS5003;34067;39.548;-76.088;2023-10-08T10:31:00;2;2;
31330;PMS5003;34067;39.548;-76.088;2023-10-08T10:33:30;1;1;
31330;PMS5003;34067;39.548;-76.088;2023-10-08T10:36:00;2;2;
31330;PMS5003;34067;39.548;-76.088;2023-10-08T10:38:29;1;1;
31330;PMS5003;34067;39.548;-76.088;2023-10-08T10:40:58;3;3;
31330;PMS5003;34067;39.548;-76.088;2023-10-08T10:43:26;2;2;
31330;PMS5003;34067;39.548;-76.088;2023-10-08T10:45:55;2;2;
31330;PMS5003;34067;39.548;-76.088;2023-10-08T10:48:23;3;3;
31330;PMS5003;34067;39.548;-76.088;2023-10-08T10:50:51;2;2;
31330;PMS5003;34067;39.548;-76.088;2023-10-08T10:53:19;2;2;
31330;PMS5003;34067;39.548;-76.088;2023-10-08T10:55:47;3;3;
31330;PMS5003;34067;39.548;-76.088;2023-10-08T10:58:15;2;2;
31330;PMS5003;34067;39.548;-76.088;2023-10-08T11:00:46;3;1;
31330;PMS5003;34067;39.548;-76.088;2023-10-08T11:03:14;2;2;
31330;PMS5003;34067;39.548;-76.088;2023-10-08T11:05:44;2;2;
31330;PMS5003;34067;39.548;-76.088;2023-10-08T11:08:15;3;2;
31330;PMS5003;34067;39.548;-76.088;2023-10-08T11:10:43;2;2;
31330;PMS5003;34067;39.548;-76.088;2023-10-08T11:13:13;3;2;
31330;PMS5003;34067;39.548;-76.088;2023-10-08T11:15:42;1;1;
31330;PMS5003;34067;39.548;-76.088;2023-10-08T11:18:11;2;2;
31330;PMS5003;34067;39.548;-76.088;2023-10-08T11:20:39;2;2;
31330;PMS5003;34067;39.548;-76.088;2023-10-08T11:23:07;4;4;
31330;PMS5003;34067;39.548;-76.088;2023-10-08T11:25:36;2;2;
31330;PMS5003;34067;39.548;-76.088;2023-10-08T11:28:04;2;2;
31330;PMS5003;34067;39.548;-76.088;2023-10-08T11:30:33;2;2;
31330;PMS5003;34067;39.548;-76.088;2023-10-08T11:33:01;1;1;
31330;PMS5003;34067;39.548;-76.088;2023-10-08T11:35:29;2;2;
31330;PMS5003;34067;39.548;-76.088;2023-10-08T11:37:58;2;2;
31330;PMS5003;34067;39.548;-76.088;2023-10-08T11:40:27;2;2;
31330;PMS5003;34067;39.548;-76.088;2023-10-08T11:42:55;2;2;
31330;PMS5003;34067;39.548;-76.088;2023-10-08T11:45:24;3;2;
31330;PMS5003;34067;39.548;-76.088;2023-10-08T11:47:52;3;2;
31330;PMS5003;34067;39.548;-76.088;2023-10-08T11:50:23;3;3;
31330;PMS5003;34067;39.548;-76.088;2023-10-08T11:52:51;2;2;
31330;PMS5003;34067;39.548;-76.088;2023-10-08T11:55:19;4;3;
31330;PMS5003;34067;39.548;-76.088;2023-10-08T11:57:47;3;3;
31330;PMS5003;34067;39.548;-76.088;2023-10-08T12:00:16;2;2;
31330;PMS5003;34067;39.548;-76.088;2023-10-08T12:02:44;2;2;
31330;PMS5003;34067;39.548;-76.088;2023-10-08T12:05:12;4;3;
31330;PMS5003;34067;39.548;-76.088;2023-10-08T12:07:40;2;2;
31330;PMS5003;34067;39.548;-76.088;2023-10-08T12:10:09;3;3;
31330;PMS5003;34067;39.548;-76.088;2023-10-08T12:12:37;3;3;
31330;PMS5003;34067;39.548;-76.088;2023-10-08T12:15:05;2;2;
31330;PMS5003;34067;39.548;-76.088;2023-10-08T12:17:34;3;3;
31330;PMS5003;34067;39.548;-76.088;2023-10-08T12:20:02;2;2;
31330;PMS5003;34067;39.548;-76.088;2023-10-08T12:22:30;2;2;
31330;PMS5003;34067;39.548;-76.088;2023-10-08T12:24:58;2;2;
31330;PMS5003;34067;39.548;-76.088;2023-10-08T12:27:27;2;2;
31330;PMS5003;34067;39.548;-76.088;2023-10-08T12:29:55;2;1;
31330;PMS5003;34067;39.548;-76.088;2023-10-08T12:32:23;2;2;
31330;PMS5003;34067;39.548;-76.088;2023-10-08T12:34:51;2;2;
31330;PMS5003;34067;39.548;-76.088;2023-10-08T12:37:19;2;2;
31330;PMS5003;34067;39.548;-76.088;2023-10-08T12:39:47;1;1;
31330;PMS5003;34067;39.548;-76.088;2023-10-08T12:42:15;1;1;
31330;PMS5003;34067;39.548;-76.088;2023-10-08T12:44:44;1;1;
31330;PMS5003;34067;39.548;-76.088;2023-10-08T12:47:12;2;2;
31330;PMS5003;34067;39.548;-76.088;2023-10-08T12:49:40;2;2;
31330;PMS5003;34067;39.548;-76.088;2023-10-08T12:52:08;2;2;
31330;PMS5003;34067;39.548;-76.088;2023-10-08T12:54:36;2;2;
31330;PMS5003;34067;39.548;-76.088;2023-10-08T12:57:04;2;2;
31330;PMS5003;34067;39.548;-76.088;2023-10-08T12:59:32;1;1;
31330;PMS5003;34067;39.548;-76.088;2023-10-08T13:02:00;3;3;
31330;PMS5003;34067;39.548;-76.088;2023-10-08T13:04:28;1;1;
31330;PMS5003;34067;39.548;-76.088;2023-10-08T13:06:57;3;3;
31330;PMS5003;34067;39.548;-76.088;2023-10-08T13:09:25;4;4;
31330;PMS5003;34067;39.548;-76.088;2023-10-08T13:11:54;5;5;
31330;PMS5003;34067;39.548;-76.088;2023-10-08T13:14:21;6;6;
31330;PMS5003;34067;39.548;-76.088;2023-10-08T13:16:50;4;4;
31330;PMS5003;34067;39.548;-76.088;2023-10-08T13:19:18;2;2;
31330;PMS5003;34067;39.548;-76.088;2023-10-08T13:21:46;2;1;
31330;PMS5003;34067;39.548;-76.088;2023-10-08T13:24:14;1;1;
31330;PMS5003;34067;39.548;-76.088;2023-10-08T13:26:42;3;2;
31330;PMS5003;34067;39.548;-76.088;2023-10-08T13:29:10;1;1;
31330;PMS5003;34067;39.548;-76.088;2023-10-08T13:31:38;2;2;
31330;PMS5003;34067;39.548;-76.088;2023-10-08T13:34:06;2;2;
31330;PMS5003;34067;39.548;-76.088;2023-10-08T13:36:34;2;1;
31330;PMS5003;34067;39.548;-76.088;2023-10-08T13:39:03;1;1;
31330;PMS5003;34067;39.548;-76.088;2023-10-08T13:41:32;3;3;
31330;PMS5003;34067;39.548;-76.088;2023-10-08T13:44:00;1;1;
31330;PMS5003;34067;39.548;-76.088;2023-10-08T13:46:28;1;1;
31330;PMS5003;34067;39.548;-76.088;2023-10-08T13:48:56;2;2;
31330;PMS5003;34067;39.548;-76.088;2023-10-08T13:51:24;2;1;
31330;PMS5003;34067;39.548;-76.088;2023-10-08T13:53:53;3;3;
31330;PMS5003;34067;39.548;-76.088;2023-10-08T13:56:23;1;1;
31330;PMS5003;34067;39.548;-76.088;2023-10-08T13:58:51;1;1;
31330;PMS5003;34067;39.548;-76.088;2023-10-08T14:01:19;1;1;
31330;PMS5003;34067;39.548;-76.088;2023-10-08T14:03:47;1;1;
31330;PMS5003;34067;39.548;-76.088;2023-10-08T14:06:15;1;1;
31330;PMS5003;34067;39.548;-76.088;2023-10-08T14:08:43;0;0;
31330;PMS5003;34067;39.548;-76.088;2023-10-08T14:11:11;2;1;
31330;PMS5003;34067;39.548;-76.088;2023-10-08T14:13:39;2;2;
31330;PMS5003;34067;39.548;-76.088;2023-10-08T14:16:07;1;1;
31330;PMS5003;34067;39.548;-76.088;2023-10-08T14:18:36;2;2;
31330;PMS5003;34067;39.548;-76.088;2023-10-08T14:21:04;1;1;
31330;PMS5003;34067;39.548;-76.088;2023-10-08T14:23:32;2;2;
31330;PMS5003;34067;39.548;-76.088;2023-10-08T14:26:00;1;1;
31330;PMS5003;34067;39.548;-76.088;2023-10-08T14:28:28;1;1;
31330;PMS5003;34067;39.548;-76.088;2023-10-08T14:30:56;1;1;
31330;PMS5003;34067;39.548;-76.088;2023-10-08T14:33:24;1;0;
31330;PMS5003;34067;39.548;-76.088;2023-10-08T14:35:52;1;0;
31330;PMS5003;34067;39.548;-76.088;2023-10-08T14:38:21;33;33;
31330;PMS5003;34067;39.548;-76.088;2023-10-08T14:40:48;14;14;
31330;PMS5003;34067;39.548;-76.088;2023-10-08T14:43:17;47;47;
31330;PMS5003;34067;39.548;-76.088;2023-10-08T14:45:45;55;55;
31330;PMS5003;34067;39.548;-76.088;2023-10-08T14:48:13;97;97;
31330;PMS5003;34067;39.548;-76.088;2023-10-08T14:50:41;15;15;
31330;PMS5003;34067;39.548;-76.088;2023-10-08T14:53:09;36;36;
31330;PMS5003;34067;39.548;-76.088;2023-10-08T14:55:37;17;17;
31330;PMS5003;34067;39.548;-76.088;2023-10-08T14:58:05;11;10;
31330;PMS5003;34067;39.548;-76.088;2023-10-08T15:00:34;10;10;
31330;PMS5003;34067;39.548;-76.088;2023-10-08T15:03:02;9;9;
31330;PMS5003;34067;39.548;-76.088;2023-10-08T15:05:30;4;4;
31330;PMS5003;34067;39.548;-76.088;2023-10-08T15:07:58;0;0;
31330;PMS5003;34067;39.548;-76.088;2023-10-08T15:10:26;0;0;
31330;PMS5003;34067;39.548;-76.088;2023-10-08T15:12:54;0;0;
31330;PMS5003;34067;39.548;-76.088;2023-10-08T15:15:22;0;0;
31330;PMS5003;34067;39.548;-76.088;2023-10-08T15:17:50;0;0;
31330;PMS5003;34067;39.548;-76.088;2023-10-08T15:20:18;3;2;
31330;PMS5003;34067;39.548;-76.088;2023-10-08T15:22:46;0;0;
31330;PMS5003;34067;39.548;-76.088;2023-10-08T15:25:15;18;18;
31330;PMS5003;34067;39.548;-76.088;2023-10-08T15:27:44;15;15;
31330;PMS5003;34067;39.548;-76.088;2023-10-08T15:30:13;7;7;
31330;PMS5003;34067;39.548;-76.088;2023-10-08T15:32:43;8;8;
31330;PMS5003;34067;39.548;-76.088;2023-10-08T15:35:13;7;7;
31330;PMS5003;34067;39.548;-76.088;2023-10-08T15:37:42;12;12;
31330;PMS5003;34067;39.548;-76.088;2023-10-08T15:40:10;15;15;
31330;PMS5003;34067;39.548;-76.088;2023-10-08T15:42:38;9;9;
31330;PMS5003;34067;39.548;-76.088;2023-10-08T15:45:06;10;10;
31330;PMS5003;34067;39.548;-76.088;2023-10-08T15:47:35;5;5;
31330;PMS5003;34067;39.548;-76.088;2023-10-08T15:50:03;4;4;
31330;PMS5003;34067;39.548;-76.088;2023-10-08T15:52:32;8;8;
31330;PMS5003;34067;39.548;-76.088;2023-10-08T15:55:00;31;31;
31330;PMS5003;34067;39.548;-76.088;2023-10-08T15:57:28;76;76;
31330;PMS5003;34067;39.548;-76.088;2023-10-08T15:59:56;1;1;
31330;PMS5003;34067;39.548;-76.088;2023-10-08T16:02:24;1;1;
31330;PMS5003;34067;39.548;-76.088;2023-10-08T16:04:52;0;0;
31330;PMS5003;34067;39.548;-76.088;2023-10-08T16:07:20;48;48;
31330;PMS5003;34067;39.548;-76.088;2023-10-08T16:09:48;22;22;
31330;PMS5003;34067;39.548;-76.088;2023-10-08T16:12:16;26;26;
31330;PMS5003;34067;39.548;-76.088;2023-10-08T16:14:44;13;12;
31330;PMS5003;34067;39.548;-76.088;2023-10-08T16:17:12;3;2;
31330;PMS5003;34067;39.548;-76.088;2023-10-08T16:19:41;1;1;